1198-й км

Карта отелей и гостиниц, располагающихся рядом с аэропортом 1198-й км :

1198-й км Свердловская область 60° 55' 49.6488" N, 60° 56' 15.3888" E
1198-й км Свердловская область 60° 55' 49.6488" N, 60° 56' 15.3888" E
Код аэродрома ИКАО
HDV1
Код аэродрома RU
ХДЖ1
Координаты
N60.93046° E060.93761°
Превышение над уровнем моря
150
Основная полоса
35/17
Курс магнитный
349,4/169,4
Длина основной ВПП
20
Ширина основной ВПП
20
Покрытие основной ВПП
Твёрдое
Освещение ВПП
Нет
Тип: 
Вертодром
Класс аэродрома: 
Принадлежность: 
ГА
Статус: 
Действующий
Сайт: 
E-mail аэродрома: 
Страна: 
Россия
Регион: 
Свердловская область
Город: 
Дополнительная информация: 
Владелец ПП: нет данных.

Найти трансфер

С помощью этой формы Вы можете найти трансфер из аэропорта 1198-й км в город, аэропорт или вокзал:

Карта места

Javascript is required to view this map.

Погода в аэропортах:

Авиационная погода в Ханты-Мансийске

Регион: 
Погода METAR: 
USHH 251830Z 14005MPS 1800 R06/P2000U SN BKN017 M25/M28 Q1026 R06/491038 TEMPO 0800 +SN OVC003
Время наблюдения
2021-01-25T18:30:00Z
Температура C
-25.0
Точка росы
-28.0
Направление ветра
140
Скорость ветра (узлы)
10
Метео видимость
1.12
Явления погоды
SN
Условия полета
IFR
Аэропорт подробнее: 

Авиационная погода в Черновцах

Регион: 
Погода METAR: 
UKLN 250930Z 11004MPS 2100 -SHRA BR BKN003 BKN///CB 02/02 Q0992 R15/290060 NOSIG
Время наблюдения
2021-01-25T09:30:00Z
Температура C
2.0
Точка росы
2.0
Направление ветра
110
Скорость ветра (узлы)
8
Метео видимость
1.3
Явления погоды
-SHRA BR
Условия полета
LIFR
Аэропорт подробнее: 

Авиационная погода в Якутске

Регион: 
Погода METAR: 
UEEE 251830Z 32001MPS 0200 0150NE R23L/0550N FG NSC M51/M57 Q1043 R23L/450150 NOSIG RMK QFE773
Время наблюдения
2021-01-25T18:30:00Z
Температура C
-51.0
Точка росы
-57.0
Направление ветра
320
Скорость ветра (узлы)
2
Метео видимость
0.12
Явления погоды
FG
Условия полета
LIFR
Аэропорт подробнее: 

Авиационная погода в Астане

Регион: 
Погода METAR: 
UACC 251830Z 26003MPS 9000 -SN SCT008 OVC040 M09/M10 Q1031 R22/3///50 NOSIG RMK QFE742/0989
Время наблюдения
2021-01-25T18:30:00Z
Температура C
-9.0
Точка росы
-10.0
Направление ветра
260
Скорость ветра (узлы)
6
Метео видимость
5.59
Явления погоды
-SN
Условия полета
VFR
Аэропорт подробнее: